sensor_id;sensor_type;location;lat;lon;timestamp;P1;durP1;ratioP1;P2;durP2;ratioP2
6898;SDS011;3488;42.616;23.350;2023-05-07T00:02:24;3.90;;;3.70;;
6898;SDS011;3488;42.616;23.350;2023-05-07T00:04:53;4.10;;;3.80;;
6898;SDS011;3488;42.616;23.350;2023-05-07T00:07:20;4.93;;;4.32;;
6898;SDS011;3488;42.616;23.350;2023-05-07T00:09:48;4.03;;;3.72;;
6898;SDS011;3488;42.616;23.350;2023-05-07T00:12:15;6.30;;;4.75;;
6898;SDS011;3488;42.616;23.350;2023-05-07T00:14:42;4.55;;;4.25;;
6898;SDS011;3488;42.616;23.350;2023-05-07T00:17:09;5.93;;;4.47;;
6898;SDS011;3488;42.616;23.350;2023-05-07T00:19:36;4.90;;;4.50;;
6898;SDS011;3488;42.616;23.350;2023-05-07T00:22:04;5.60;;;5.05;;
6898;SDS011;3488;42.616;23.350;2023-05-07T00:24:32;8.05;;;5.95;;
6898;SDS011;3488;42.616;23.350;2023-05-07T00:26:59;5.70;;;4.82;;
6898;SDS011;3488;42.616;23.350;2023-05-07T00:29:26;4.82;;;4.40;;
6898;SDS011;3488;42.616;23.350;2023-05-07T00:31:53;4.93;;;4.63;;
6898;SDS011;3488;42.616;23.350;2023-05-07T00:34:20;5.20;;;4.63;;
6898;SDS011;3488;42.616;23.350;2023-05-07T00:36:47;4.40;;;4.10;;
6898;SDS011;3488;42.616;23.350;2023-05-07T00:39:16;6.10;;;5.50;;
6898;SDS011;3488;42.616;23.350;2023-05-07T00:41:43;7.15;;;4.95;;
6898;SDS011;3488;42.616;23.350;2023-05-07T00:44:11;5.40;;;4.53;;
6898;SDS011;3488;42.616;23.350;2023-05-07T00:46:38;5.05;;;4.60;;
6898;SDS011;3488;42.616;23.350;2023-05-07T00:49:05;5.80;;;4.85;;
6898;SDS011;3488;42.616;23.350;2023-05-07T00:51:32;6.57;;;4.80;;
6898;SDS011;3488;42.616;23.350;2023-05-07T00:54:01;5.25;;;4.75;;
6898;SDS011;3488;42.616;23.350;2023-05-07T00:56:31;5.57;;;5.07;;
6898;SDS011;3488;42.616;23.350;2023-05-07T00:58:58;5.68;;;5.18;;
6898;SDS011;3488;42.616;23.350;2023-05-07T01:01:28;5.15;;;4.68;;
6898;SDS011;3488;42.616;23.350;2023-05-07T01:03:55;5.20;;;4.38;;
6898;SDS011;3488;42.616;23.350;2023-05-07T01:06:22;5.60;;;4.90;;
6898;SDS011;3488;42.616;23.350;2023-05-07T01:08:52;6.93;;;4.78;;
6898;SDS011;3488;42.616;23.350;2023-05-07T01:11:21;5.60;;;5.20;;
6898;SDS011;3488;42.616;23.350;2023-05-07T01:13:52;5.70;;;4.53;;
6898;SDS011;3488;42.616;23.350;2023-05-07T01:16:19;7.97;;;4.38;;
6898;SDS011;3488;42.616;23.350;2023-05-07T01:18:46;4.75;;;4.35;;
6898;SDS011;3488;42.616;23.350;2023-05-07T01:21:14;5.70;;;5.13;;
6898;SDS011;3488;42.616;23.350;2023-05-07T01:23:45;6.93;;;4.22;;
6898;SDS011;3488;42.616;23.350;2023-05-07T01:26:13;4.85;;;4.53;;
6898;SDS011;3488;42.616;23.350;2023-05-07T01:28:41;4.88;;;4.50;;
6898;SDS011;3488;42.616;23.350;2023-05-07T01:31:10;5.55;;;4.53;;
6898;SDS011;3488;42.616;23.350;2023-05-07T01:33:40;4.70;;;4.35;;
6898;SDS011;3488;42.616;23.350;2023-05-07T01:36:10;5.00;;;4.60;;
6898;SDS011;3488;42.616;23.350;2023-05-07T01:38:39;5.07;;;4.68;;
6898;SDS011;3488;42.616;23.350;2023-05-07T01:41:09;4.85;;;4.45;;
6898;SDS011;3488;42.616;23.350;2023-05-07T01:43:38;4.78;;;4.38;;
6898;SDS011;3488;42.616;23.350;2023-05-07T01:46:07;5.90;;;5.45;;
6898;SDS011;3488;42.616;23.350;2023-05-07T01:48:36;5.15;;;4.63;;
6898;SDS011;3488;42.616;23.350;2023-05-07T01:51:04;6.30;;;5.65;;
6898;SDS011;3488;42.616;23.350;2023-05-07T01:53:35;5.85;;;5.35;;
6898;SDS011;3488;42.616;23.350;2023-05-07T01:56:02;5.47;;;5.07;;
6898;SDS011;3488;42.616;23.350;2023-05-07T01:58:31;5.82;;;5.32;;
6898;SDS011;3488;42.616;23.350;2023-05-07T02:00:59;6.15;;;5.13;;
6898;SDS011;3488;42.616;23.350;2023-05-07T02:03:26;5.22;;;4.82;;
6898;SDS011;3488;42.616;23.350;2023-05-07T02:05:53;5.68;;;5.18;;
6898;SDS011;3488;42.616;23.350;2023-05-07T02:08:20;5.57;;;5.10;;
6898;SDS011;3488;42.616;23.350;2023-05-07T02:10:47;5.13;;;4.72;;
6898;SDS011;3488;42.616;23.350;2023-05-07T02:13:15;6.25;;;5.13;;
6898;SDS011;3488;42.616;23.350;2023-05-07T02:15:43;5.72;;;5.18;;
6898;SDS011;3488;42.616;23.350;2023-05-07T02:18:15;5.93;;;4.78;;
6898;SDS011;3488;42.616;23.350;2023-05-07T02:20:42;5.20;;;4.80;;
6898;SDS011;3488;42.616;23.350;2023-05-07T02:23:10;7.82;;;5.55;;
6898;SDS011;3488;42.616;23.350;2023-05-07T02:25:37;6.57;;;5.13;;
6898;SDS011;3488;42.616;23.350;2023-05-07T02:28:04;5.85;;;5.25;;
6898;SDS011;3488;42.616;23.350;2023-05-07T02:30:32;6.28;;;5.68;;
6898;SDS011;3488;42.616;23.350;2023-05-07T02:33:01;5.70;;;5.18;;
6898;SDS011;3488;42.616;23.350;2023-05-07T02:35:28;5.93;;;5.32;;
6898;SDS011;3488;42.616;23.350;2023-05-07T02:37:55;5.43;;;5.05;;
6898;SDS011;3488;42.616;23.350;2023-05-07T02:40:22;5.93;;;5.43;;
6898;SDS011;3488;42.616;23.350;2023-05-07T02:42:48;5.63;;;5.00;;
6898;SDS011;3488;42.616;23.350;2023-05-07T02:45:15;6.00;;;5.40;;
6898;SDS011;3488;42.616;23.350;2023-05-07T02:47:42;6.10;;;5.50;;
6898;SDS011;3488;42.616;23.350;2023-05-07T02:50:11;6.35;;;5.75;;
6898;SDS011;3488;42.616;23.350;2023-05-07T02:52:38;9.07;;;6.63;;
6898;SDS011;3488;42.616;23.350;2023-05-07T02:55:06;6.65;;;6.00;;
6898;SDS011;3488;42.616;23.350;2023-05-07T02:57:34;6.72;;;5.95;;
6898;SDS011;3488;42.616;23.350;2023-05-07T03:00:09;6.43;;;5.82;;
6898;SDS011;3488;42.616;23.350;2023-05-07T03:02:37;8.63;;;6.95;;
6898;SDS011;3488;42.616;23.350;2023-05-07T03:05:05;8.30;;;6.68;;
6898;SDS011;3488;42.616;23.350;2023-05-07T03:07:34;7.70;;;7.00;;
6898;SDS011;3488;42.616;23.350;2023-05-07T03:10:02;8.55;;;6.93;;
6898;SDS011;3488;42.616;23.350;2023-05-07T03:12:29;8.38;;;6.82;;
6898;SDS011;3488;42.616;23.350;2023-05-07T03:14:56;9.32;;;7.47;;
6898;SDS011;3488;42.616;23.350;2023-05-07T03:17:23;8.15;;;7.35;;
6898;SDS011;3488;42.616;23.350;2023-05-07T03:19:50;8.70;;;7.00;;
6898;SDS011;3488;42.616;23.350;2023-05-07T03:22:18;8.05;;;7.25;;
6898;SDS011;3488;42.616;23.350;2023-05-07T03:24:47;7.65;;;6.90;;
6898;SDS011;3488;42.616;23.350;2023-05-07T03:27:14;9.02;;;8.10;;
6898;SDS011;3488;42.616;23.350;2023-05-07T03:29:41;9.82;;;7.80;;
6898;SDS011;3488;42.616;23.350;2023-05-07T03:32:08;9.18;;;7.72;;
6898;SDS011;3488;42.616;23.350;2023-05-07T03:34:35;7.55;;;6.85;;
6898;SDS011;3488;42.616;23.350;2023-05-07T03:37:02;7.63;;;6.80;;
6898;SDS011;3488;42.616;23.350;2023-05-07T03:39:30;7.80;;;7.03;;
6898;SDS011;3488;42.616;23.350;2023-05-07T03:41:58;8.40;;;7.57;;
6898;SDS011;3488;42.616;23.350;2023-05-07T03:44:26;7.30;;;6.57;;
6898;SDS011;3488;42.616;23.350;2023-05-07T03:46:53;10.07;;;6.97;;
6898;SDS011;3488;42.616;23.350;2023-05-07T03:49:20;10.48;;;7.32;;
6898;SDS011;3488;42.616;23.350;2023-05-07T03:51:47;8.38;;;7.07;;
6898;SDS011;3488;42.616;23.350;2023-05-07T03:54:14;6.97;;;6.38;;
6898;SDS011;3488;42.616;23.350;2023-05-07T03:56:42;9.23;;;7.10;;
6898;SDS011;3488;42.616;23.350;2023-05-07T03:59:10;7.55;;;6.72;;
6898;SDS011;3488;42.616;23.350;2023-05-07T04:01:38;8.73;;;7.35;;
6898;SDS011;3488;42.616;23.350;2023-05-07T04:04:05;7.70;;;6.90;;
6898;SDS011;3488;42.616;23.350;2023-05-07T04:06:32;7.10;;;6.50;;
6898;SDS011;3488;42.616;23.350;2023-05-07T04:08:59;7.32;;;6.72;;
6898;SDS011;3488;42.616;23.350;2023-05-07T04:11:26;10.38;;;6.60;;
6898;SDS011;3488;42.616;23.350;2023-05-07T04:13:53;9.70;;;6.85;;
6898;SDS011;3488;42.616;23.350;2023-05-07T04:16:22;11.82;;;7.05;;
6898;SDS011;3488;42.616;23.350;2023-05-07T04:18:49;8.07;;;7.20;;
6898;SDS011;3488;42.616;23.350;2023-05-07T04:21:17;8.23;;;7.40;;
6898;SDS011;3488;42.616;23.350;2023-05-07T04:23:47;9.13;;;7.13;;
6898;SDS011;3488;42.616;23.350;2023-05-07T04:26:15;8.05;;;7.25;;
6898;SDS011;3488;42.616;23.350;2023-05-07T04:28:42;8.05;;;7.30;;
6898;SDS011;3488;42.616;23.350;2023-05-07T04:31:09;12.15;;;8.77;;
6898;SDS011;3488;42.616;23.350;2023-05-07T04:33:37;7.85;;;7.13;;
6898;SDS011;3488;42.616;23.350;2023-05-07T04:36:05;8.57;;;7.68;;
6898;SDS011;3488;42.616;23.350;2023-05-07T04:38:32;13.15;;;7.63;;
6898;SDS011;3488;42.616;23.350;2023-05-07T04:41:02;9.50;;;7.75;;
6898;SDS011;3488;42.616;23.350;2023-05-07T04:43:30;8.02;;;7.22;;
6898;SDS011;3488;42.616;23.350;2023-05-07T04:45:57;7.30;;;6.78;;
6898;SDS011;3488;42.616;23.350;2023-05-07T04:48:24;9.52;;;7.80;;
6898;SDS011;3488;42.616;23.350;2023-05-07T04:50:53;10.70;;;7.85;;
6898;SDS011;3488;42.616;23.350;2023-05-07T04:53:20;12.30;;;8.38;;
6898;SDS011;3488;42.616;23.350;2023-05-07T04:55:47;12.73;;;8.82;;
6898;SDS011;3488;42.616;23.350;2023-05-07T04:58:14;9.82;;;8.43;;
6898;SDS011;3488;42.616;23.350;2023-05-07T05:00:42;9.43;;;8.52;;
6898;SDS011;3488;42.616;23.350;2023-05-07T05:03:09;10.73;;;8.82;;
6898;SDS011;3488;42.616;23.350;2023-05-07T05:05:36;10.68;;;8.43;;
6898;SDS011;3488;42.616;23.350;2023-05-07T05:08:04;9.88;;;7.65;;
6898;SDS011;3488;42.616;23.350;2023-05-07T05:10:32;8.73;;;7.78;;
6898;SDS011;3488;42.616;23.350;2023-05-07T05:12:59;10.63;;;7.78;;
6898;SDS011;3488;42.616;23.350;2023-05-07T05:15:26;7.93;;;7.22;;
6898;SDS011;3488;42.616;23.350;2023-05-07T05:17:53;7.78;;;7.07;;
6898;SDS011;3488;42.616;23.350;2023-05-07T05:20:20;7.88;;;7.05;;
6898;SDS011;3488;42.616;23.350;2023-05-07T05:22:48;10.63;;;7.82;;
6898;SDS011;3488;42.616;23.350;2023-05-07T05:25:16;7.93;;;7.03;;
6898;SDS011;3488;42.616;23.350;2023-05-07T05:27:43;8.20;;;7.38;;
6898;SDS011;3488;42.616;23.350;2023-05-07T05:30:11;11.60;;;7.43;;
6898;SDS011;3488;42.616;23.350;2023-05-07T05:32:39;9.90;;;7.80;;
6898;SDS011;3488;42.616;23.350;2023-05-07T05:35:06;8.32;;;7.53;;
6898;SDS011;3488;42.616;23.350;2023-05-07T05:37:33;8.98;;;7.53;;
6898;SDS011;3488;42.616;23.350;2023-05-07T05:40:00;9.25;;;8.13;;
6898;SDS011;3488;42.616;23.350;2023-05-07T05:42:30;10.95;;;8.50;;
6898;SDS011;3488;42.616;23.350;2023-05-07T05:44:57;10.13;;;8.52;;
6898;SDS011;3488;42.616;23.350;2023-05-07T05:47:24;9.98;;;8.00;;
6898;SDS011;3488;42.616;23.350;2023-05-07T05:49:52;9.85;;;8.82;;
6898;SDS011;3488;42.616;23.350;2023-05-07T05:52:19;9.43;;;8.38;;
6898;SDS011;3488;42.616;23.350;2023-05-07T05:54:48;10.32;;;8.43;;
6898;SDS011;3488;42.616;23.350;2023-05-07T05:57:15;9.77;;;8.77;;
6898;SDS011;3488;42.616;23.350;2023-05-07T05:59:44;9.98;;;8.85;;
6898;SDS011;3488;42.616;23.350;2023-05-07T06:02:12;9.40;;;8.38;;
6898;SDS011;3488;42.616;23.350;2023-05-07T06:04:39;12.30;;;8.90;;
6898;SDS011;3488;42.616;23.350;2023-05-07T06:07:08;9.30;;;7.72;;
6898;SDS011;3488;42.616;23.350;2023-05-07T06:09:36;10.18;;;9.15;;
6898;SDS011;3488;42.616;23.350;2023-05-07T06:12:03;11.05;;;7.75;;
6898;SDS011;3488;42.616;23.350;2023-05-07T06:14:31;9.50;;;8.50;;
6898;SDS011;3488;42.616;23.350;2023-05-07T06:16:59;9.73;;;8.43;;
6898;SDS011;3488;42.616;23.350;2023-05-07T06:19:26;9.82;;;8.82;;
6898;SDS011;3488;42.616;23.350;2023-05-07T06:21:54;9.82;;;8.73;;
6898;SDS011;3488;42.616;23.350;2023-05-07T06:24:22;9.68;;;7.60;;
6898;SDS011;3488;42.616;23.350;2023-05-07T06:26:49;8.75;;;7.80;;
6898;SDS011;3488;42.616;23.350;2023-05-07T06:29:16;8.73;;;7.03;;
6898;SDS011;3488;42.616;23.350;2023-05-07T06:31:43;8.25;;;7.55;;
6898;SDS011;3488;42.616;23.350;2023-05-07T06:34:12;10.07;;;7.43;;
6898;SDS011;3488;42.616;23.350;2023-05-07T06:36:40;7.25;;;6.57;;
6898;SDS011;3488;42.616;23.350;2023-05-07T06:39:07;16.13;;;11.40;;
6898;SDS011;3488;42.616;23.350;2023-05-07T06:41:35;7.38;;;6.60;;
6898;SDS011;3488;42.616;23.350;2023-05-07T06:44:02;6.70;;;6.07;;
6898;SDS011;3488;42.616;23.350;2023-05-07T06:46:30;7.25;;;6.22;;
6898;SDS011;3488;42.616;23.350;2023-05-07T06:48:57;7.82;;;7.22;;
6898;SDS011;3488;42.616;23.350;2023-05-07T06:51:26;8.98;;;7.13;;
6898;SDS011;3488;42.616;23.350;2023-05-07T06:53:53;7.90;;;7.10;;
6898;SDS011;3488;42.616;23.350;2023-05-07T06:56:20;8.02;;;7.05;;
6898;SDS011;3488;42.616;23.350;2023-05-07T06:58:47;8.95;;;6.38;;
6898;SDS011;3488;42.616;23.350;2023-05-07T07:01:14;7.20;;;6.50;;
6898;SDS011;3488;42.616;23.350;2023-05-07T07:03:41;6.93;;;6.32;;
6898;SDS011;3488;42.616;23.350;2023-05-07T07:06:08;7.03;;;6.43;;
6898;SDS011;3488;42.616;23.350;2023-05-07T07:08:37;7.90;;;7.10;;
6898;SDS011;3488;42.616;23.350;2023-05-07T07:11:04;7.35;;;6.75;;
6898;SDS011;3488;42.616;23.350;2023-05-07T07:13:32;7.15;;;6.43;;
6898;SDS011;3488;42.616;23.350;2023-05-07T07:15:59;8.05;;;6.20;;
6898;SDS011;3488;42.616;23.350;2023-05-07T07:18:27;8.75;;;5.63;;
6898;SDS011;3488;42.616;23.350;2023-05-07T07:20:54;7.13;;;6.28;;
6898;SDS011;3488;42.616;23.350;2023-05-07T07:23:21;6.38;;;5.78;;
6898;SDS011;3488;42.616;23.350;2023-05-07T07:25:50;5.43;;;4.90;;
6898;SDS011;3488;42.616;23.350;2023-05-07T07:28:17;5.57;;;5.07;;
6898;SDS011;3488;42.616;23.350;2023-05-07T07:30:44;9.60;;;5.55;;
6898;SDS011;3488;42.616;23.350;2023-05-07T07:33:11;11.52;;;5.57;;
6898;SDS011;3488;42.616;23.350;2023-05-07T07:35:38;5.45;;;4.47;;
6898;SDS011;3488;42.616;23.350;2023-05-07T07:38:05;6.40;;;5.28;;
6898;SDS011;3488;42.616;23.350;2023-05-07T07:40:34;6.75;;;5.32;;
6898;SDS011;3488;42.616;23.350;2023-05-07T07:43:03;6.03;;;5.47;;
6898;SDS011;3488;42.616;23.350;2023-05-07T07:45:31;6.53;;;5.10;;
6898;SDS011;3488;42.616;23.350;2023-05-07T07:47:58;5.68;;;5.22;;
6898;SDS011;3488;42.616;23.350;2023-05-07T07:50:26;6.28;;;5.68;;
6898;SDS011;3488;42.616;23.350;2023-05-07T07:52:53;5.25;;;4.65;;
6898;SDS011;3488;42.616;23.350;2023-05-07T07:55:20;5.65;;;4.75;;
6898;SDS011;3488;42.616;23.350;2023-05-07T07:57:49;5.25;;;4.85;;
6898;SDS011;3488;42.616;23.350;2023-05-07T08:00:18;5.18;;;4.32;;
6898;SDS011;3488;42.616;23.350;2023-05-07T08:02:46;4.93;;;4.50;;
6898;SDS011;3488;42.616;23.350;2023-05-07T08:05:13;6.20;;;5.60;;
6898;SDS011;3488;42.616;23.350;2023-05-07T08:07:40;8.90;;;5.35;;
6898;SDS011;3488;42.616;23.350;2023-05-07T08:10:07;5.88;;;4.32;;
6898;SDS011;3488;42.616;23.350;2023-05-07T08:12:35;4.78;;;4.38;;
6898;SDS011;3488;42.616;23.350;2023-05-07T08:15:02;7.72;;;4.95;;
6898;SDS011;3488;42.616;23.350;2023-05-07T08:17:32;5.45;;;4.93;;
6898;SDS011;3488;42.616;23.350;2023-05-07T08:19:59;5.20;;;4.38;;
6898;SDS011;3488;42.616;23.350;2023-05-07T08:22:26;4.65;;;4.35;;
6898;SDS011;3488;42.616;23.350;2023-05-07T08:24:53;5.18;;;4.72;;
6898;SDS011;3488;42.616;23.350;2023-05-07T08:27:20;5.65;;;4.75;;
6898;SDS011;3488;42.616;23.350;2023-05-07T08:29:47;10.85;;;4.32;;
6898;SDS011;3488;42.616;23.350;2023-05-07T08:32:15;6.32;;;5.82;;
6898;SDS011;3488;42.616;23.350;2023-05-07T08:34:43;5.97;;;5.32;;
6898;SDS011;3488;42.616;23.350;2023-05-07T08:37:11;6.13;;;5.63;;
6898;SDS011;3488;42.616;23.350;2023-05-07T08:39:38;6.60;;;6.00;;
6898;SDS011;3488;42.616;23.350;2023-05-07T08:42:05;10.93;;;6.05;;
6898;SDS011;3488;42.616;23.350;2023-05-07T08:44:36;7.55;;;6.03;;
6898;SDS011;3488;42.616;23.350;2023-05-07T08:47:06;7.18;;;6.32;;
6898;SDS011;3488;42.616;23.350;2023-05-07T08:49:33;8.43;;;6.25;;
6898;SDS011;3488;42.616;23.350;2023-05-07T08:52:02;6.45;;;5.82;;
6898;SDS011;3488;42.616;23.350;2023-05-07T08:54:30;6.15;;;5.72;;
6898;SDS011;3488;42.616;23.350;2023-05-07T08:56:57;6.88;;;6.03;;
6898;SDS011;3488;42.616;23.350;2023-05-07T08:59:24;6.13;;;5.28;;
6898;SDS011;3488;42.616;23.350;2023-05-07T09:01:52;7.70;;;6.55;;
6898;SDS011;3488;42.616;23.350;2023-05-07T09:04:19;6.90;;;6.30;;
6898;SDS011;3488;42.616;23.350;2023-05-07T09:06:47;7.55;;;5.70;;
6898;SDS011;3488;42.616;23.350;2023-05-07T09:09:17;5.40;;;4.90;;
6898;SDS011;3488;42.616;23.350;2023-05-07T09:11:45;9.10;;;5.80;;
6898;SDS011;3488;42.616;23.350;2023-05-07T09:14:12;7.70;;;5.57;;
6898;SDS011;3488;42.616;23.350;2023-05-07T09:16:39;5.38;;;4.90;;
6898;SDS011;3488;42.616;23.350;2023-05-07T09:19:07;4.63;;;4.32;;
6898;SDS011;3488;42.616;23.350;2023-05-07T09:21:33;7.90;;;5.22;;
6898;SDS011;3488;42.616;23.350;2023-05-07T09:24:01;6.13;;;5.53;;
6898;SDS011;3488;42.616;23.350;2023-05-07T09:26:30;6.30;;;4.20;;
6898;SDS011;3488;42.616;23.350;2023-05-07T09:28:58;6.20;;;4.72;;
6898;SDS011;3488;42.616;23.350;2023-05-07T09:31:25;5.93;;;4.78;;
6898;SDS011;3488;42.616;23.350;2023-05-07T09:33:53;5.10;;;4.70;;
6898;SDS011;3488;42.616;23.350;2023-05-07T09:36:21;6.32;;;4.50;;
6898;SDS011;3488;42.616;23.350;2023-05-07T09:38:49;5.45;;;4.95;;
6898;SDS011;3488;42.616;23.350;2023-05-07T09:41:16;6.00;;;5.50;;
6898;SDS011;3488;42.616;23.350;2023-05-07T09:43:45;4.97;;;4.57;;
6898;SDS011;3488;42.616;23.350;2023-05-07T09:46:12;4.97;;;4.57;;
6898;SDS011;3488;42.616;23.350;2023-05-07T09:48:41;5.28;;;4.78;;
6898;SDS011;3488;42.616;23.350;2023-05-07T09:51:12;5.60;;;5.15;;
6898;SDS011;3488;42.616;23.350;2023-05-07T09:53:45;6.22;;;5.68;;
6898;SDS011;3488;42.616;23.350;2023-05-07T09:56:13;5.35;;;4.88;;
6898;SDS011;3488;42.616;23.350;2023-05-07T09:58:40;5.28;;;4.82;;
6898;SDS011;3488;42.616;23.350;2023-05-07T10:01:09;12.45;;;5.60;;
6898;SDS011;3488;42.616;23.350;2023-05-07T10:03:37;5.50;;;5.00;;
6898;SDS011;3488;42.616;23.350;2023-05-07T10:06:08;5.55;;;5.10;;
6898;SDS011;3488;42.616;23.350;2023-05-07T10:08:36;6.75;;;5.45;;
6898;SDS011;3488;42.616;23.350;2023-05-07T10:11:04;6.38;;;5.78;;
6898;SDS011;3488;42.616;23.350;2023-05-07T10:13:32;6.72;;;5.85;;
6898;SDS011;3488;42.616;23.350;2023-05-07T10:16:03;6.20;;;5.70;;
6898;SDS011;3488;42.616;23.350;2023-05-07T10:18:33;5.63;;;5.18;;
6898;SDS011;3488;42.616;23.350;2023-05-07T10:21:02;6.03;;;5.43;;
6898;SDS011;3488;42.616;23.350;2023-05-07T10:23:34;5.72;;;5.22;;
6898;SDS011;3488;42.616;23.350;2023-05-07T10:26:04;5.38;;;4.82;;
6898;SDS011;3488;42.616;23.350;2023-05-07T10:28:34;6.00;;;5.50;;
6898;SDS011;3488;42.616;23.350;2023-05-07T10:31:08;6.22;;;5.72;;
6898;SDS011;3488;42.616;23.350;2023-05-07T10:33:44;6.97;;;5.50;;
6898;SDS011;3488;42.616;23.350;2023-05-07T10:36:16;6.18;;;5.75;;
6898;SDS011;3488;42.616;23.350;2023-05-07T10:38:44;8.40;;;6.05;;
6898;SDS011;3488;42.616;23.350;2023-05-07T10:41:12;5.53;;;4.55;;
6898;SDS011;3488;42.616;23.350;2023-05-07T10:43:42;5.20;;;4.78;;
6898;SDS011;3488;42.616;23.350;2023-05-07T10:46:11;5.35;;;4.85;;
6898;SDS011;3488;42.616;23.350;2023-05-07T10:51:36;5.18;;;4.88;;
6898;SDS011;3488;42.616;23.350;2023-05-07T10:54:19;5.18;;;4.68;;
6898;SDS011;3488;42.616;23.350;2023-05-07T10:56:52;8.77;;;4.93;;
6898;SDS011;3488;42.616;23.350;2023-05-07T10:59:35;6.47;;;5.28;;
6898;SDS011;3488;42.616;23.350;2023-05-07T11:02:09;5.55;;;4.53;;
6898;SDS011;3488;42.616;23.350;2023-05-07T11:04:40;4.65;;;4.25;;
6898;SDS011;3488;42.616;23.350;2023-05-07T11:09:54;5.53;;;5.13;;
6898;SDS011;3488;42.616;23.350;2023-05-07T11:15:35;4.82;;;4.60;;
6898;SDS011;3488;42.616;23.350;2023-05-07T11:18:04;5.07;;;4.57;;
6898;SDS011;3488;42.616;23.350;2023-05-07T11:26:24;5.10;;;4.70;;
6898;SDS011;3488;42.616;23.350;2023-05-07T11:28:53;4.28;;;4.07;;
6898;SDS011;3488;42.616;23.350;2023-05-07T11:31:22;5.00;;;4.60;;
6898;SDS011;3488;42.616;23.350;2023-05-07T11:33:51;4.50;;;4.20;;
6898;SDS011;3488;42.616;23.350;2023-05-07T11:36:21;7.15;;;4.55;;
6898;SDS011;3488;42.616;23.350;2023-05-07T11:38:49;5.13;;;4.63;;
6898;SDS011;3488;42.616;23.350;2023-05-07T11:41:16;5.45;;;4.93;;
6898;SDS011;3488;42.616;23.350;2023-05-07T11:43:57;5.40;;;4.35;;
6898;SDS011;3488;42.616;23.350;2023-05-07T11:46:26;4.70;;;4.30;;
6898;SDS011;3488;42.616;23.350;2023-05-07T11:48:54;6.65;;;4.30;;
6898;SDS011;3488;42.616;23.350;2023-05-07T11:51:23;4.63;;;4.35;;
6898;SDS011;3488;42.616;23.350;2023-05-07T11:53:52;5.47;;;4.97;;
6898;SDS011;3488;42.616;23.350;2023-05-07T11:56:20;4.63;;;4.32;;
6898;SDS011;3488;42.616;23.350;2023-05-07T11:58:47;5.20;;;4.80;;
6898;SDS011;3488;42.616;23.350;2023-05-07T12:01:15;5.35;;;4.95;;
6898;SDS011;3488;42.616;23.350;2023-05-07T12:03:43;5.07;;;4.60;;
6898;SDS011;3488;42.616;23.350;2023-05-07T12:06:15;5.22;;;4.75;;
6898;SDS011;3488;42.616;23.350;2023-05-07T12:08:44;5.68;;;5.13;;
6898;SDS011;3488;42.616;23.350;2023-05-07T12:11:13;5.13;;;4.80;;
6898;SDS011;3488;42.616;23.350;2023-05-07T12:13:42;5.10;;;4.63;;
6898;SDS011;3488;42.616;23.350;2023-05-07T12:16:10;5.90;;;4.30;;
6898;SDS011;3488;42.616;23.350;2023-05-07T12:18:37;4.75;;;4.45;;
6898;SDS011;3488;42.616;23.350;2023-05-07T12:21:05;4.93;;;4.65;;
6898;SDS011;3488;42.616;23.350;2023-05-07T12:23:33;4.88;;;4.38;;
6898;SDS011;3488;42.616;23.350;2023-05-07T12:26:04;4.57;;;4.18;;
6898;SDS011;3488;42.616;23.350;2023-05-07T12:28:32;6.45;;;5.07;;
6898;SDS011;3488;42.616;23.350;2023-05-07T12:31:04;4.88;;;4.53;;
6898;SDS011;3488;42.616;23.350;2023-05-07T12:33:32;4.55;;;4.25;;
6898;SDS011;3488;42.616;23.350;2023-05-07T12:36:03;5.00;;;4.55;;
6898;SDS011;3488;42.616;23.350;2023-05-07T12:38:36;5.43;;;4.72;;
6898;SDS011;3488;42.616;23.350;2023-05-07T12:41:08;4.82;;;4.53;;
6898;SDS011;3488;42.616;23.350;2023-05-07T12:43:37;4.50;;;4.10;;
6898;SDS011;3488;42.616;23.350;2023-05-07T12:46:05;5.00;;;4.55;;
6898;SDS011;3488;42.616;23.350;2023-05-07T12:48:33;4.07;;;3.80;;
6898;SDS011;3488;42.616;23.350;2023-05-07T12:51:02;4.40;;;4.10;;
6898;SDS011;3488;42.616;23.350;2023-05-07T12:53:31;5.50;;;4.65;;
6898;SDS011;3488;42.616;23.350;2023-05-07T12:55:58;4.30;;;4.10;;
6898;SDS011;3488;42.616;23.350;2023-05-07T12:58:28;5.93;;;4.50;;
6898;SDS011;3488;42.616;23.350;2023-05-07T13:00:57;4.35;;;4.07;;
6898;SDS011;3488;42.616;23.350;2023-05-07T13:03:26;4.60;;;4.30;;
6898;SDS011;3488;42.616;23.350;2023-05-07T13:05:57;4.22;;;3.92;;
6898;SDS011;3488;42.616;23.350;2023-05-07T13:08:26;4.63;;;3.95;;
6898;SDS011;3488;42.616;23.350;2023-05-07T13:10:54;6.65;;;4.50;;
6898;SDS011;3488;42.616;23.350;2023-05-07T13:13:22;4.03;;;3.67;;
6898;SDS011;3488;42.616;23.350;2023-05-07T13:15:51;4.05;;;3.75;;
6898;SDS011;3488;42.616;23.350;2023-05-07T13:18:18;4.65;;;4.25;;
6898;SDS011;3488;42.616;23.350;2023-05-07T13:20:45;5.32;;;4.15;;
6898;SDS011;3488;42.616;23.350;2023-05-07T13:23:12;4.60;;;4.15;;
6898;SDS011;3488;42.616;23.350;2023-05-07T13:25:39;6.20;;;4.10;;
6898;SDS011;3488;42.616;23.350;2023-05-07T13:28:06;3.85;;;3.65;;
6898;SDS011;3488;42.616;23.350;2023-05-07T13:30:33;4.10;;;3.70;;
6898;SDS011;3488;42.616;23.350;2023-05-07T13:33:03;5.82;;;4.05;;
6898;SDS011;3488;42.616;23.350;2023-05-07T13:35:30;3.80;;;3.50;;
6898;SDS011;3488;42.616;23.350;2023-05-07T13:37:57;7.05;;;4.20;;
6898;SDS011;3488;42.616;23.350;2023-05-07T13:40:24;3.97;;;3.67;;
6898;SDS011;3488;42.616;23.350;2023-05-07T13:42:52;3.45;;;3.25;;
6898;SDS011;3488;42.616;23.350;2023-05-07T13:45:20;4.07;;;3.70;;
6898;SDS011;3488;42.616;23.350;2023-05-07T13:47:50;4.20;;;3.90;;
6898;SDS011;3488;42.616;23.350;2023-05-07T13:50:20;5.20;;;4.05;;
6898;SDS011;3488;42.616;23.350;2023-05-07T13:52:47;3.90;;;3.60;;
6898;SDS011;3488;42.616;23.350;2023-05-07T13:55:16;3.92;;;3.60;;
6898;SDS011;3488;42.616;23.350;2023-05-07T13:57:44;3.45;;;3.35;;
6898;SDS011;3488;42.616;23.350;2023-05-07T14:00:12;3.35;;;3.15;;
6898;SDS011;3488;42.616;23.350;2023-05-07T14:02:41;3.95;;;3.67;;
6898;SDS011;3488;42.616;23.350;2023-05-07T14:05:09;3.58;;;3.38;;
6898;SDS011;3488;42.616;23.350;2023-05-07T14:07:37;4.25;;;3.90;;
6898;SDS011;3488;42.616;23.350;2023-05-07T14:10:04;3.97;;;3.58;;
6898;SDS011;3488;42.616;23.350;2023-05-07T14:12:33;3.65;;;3.42;;
6898;SDS011;3488;42.616;23.350;2023-05-07T14:15:00;4.55;;;3.17;;
6898;SDS011;3488;42.616;23.350;2023-05-07T14:17:27;4.40;;;4.00;;
6898;SDS011;3488;42.616;23.350;2023-05-07T14:19:55;4.22;;;3.90;;
6898;SDS011;3488;42.616;23.350;2023-05-07T14:22:25;4.85;;;4.45;;
6898;SDS011;3488;42.616;23.350;2023-05-07T14:24:54;4.40;;;4.00;;
6898;SDS011;3488;42.616;23.350;2023-05-07T14:27:21;3.78;;;3.58;;
6898;SDS011;3488;42.616;23.350;2023-05-07T14:29:48;4.47;;;4.07;;
6898;SDS011;3488;42.616;23.350;2023-05-07T14:32:16;4.57;;;4.20;;
6898;SDS011;3488;42.616;23.350;2023-05-07T14:34:44;4.68;;;4.13;;
6898;SDS011;3488;42.616;23.350;2023-05-07T14:37:24;4.28;;;3.58;;
6898;SDS011;3488;42.616;23.350;2023-05-07T14:39:51;4.32;;;3.78;;
6898;SDS011;3488;42.616;23.350;2023-05-07T14:42:19;3.92;;;3.45;;
6898;SDS011;3488;42.616;23.350;2023-05-07T14:44:47;3.63;;;3.53;;
6898;SDS011;3488;42.616;23.350;2023-05-07T14:47:14;4.03;;;3.83;;
6898;SDS011;3488;42.616;23.350;2023-05-07T14:49:41;4.30;;;4.00;;
6898;SDS011;3488;42.616;23.350;2023-05-07T14:52:08;4.32;;;3.92;;
6898;SDS011;3488;42.616;23.350;2023-05-07T14:54:36;5.95;;;4.00;;
6898;SDS011;3488;42.616;23.350;2023-05-07T14:57:04;4.28;;;3.92;;
6898;SDS011;3488;42.616;23.350;2023-05-07T14:59:33;3.83;;;3.53;;
6898;SDS011;3488;42.616;23.350;2023-05-07T15:02:00;4.20;;;3.90;;
6898;SDS011;3488;42.616;23.350;2023-05-07T15:04:30;3.40;;;3.20;;
6898;SDS011;3488;42.616;23.350;2023-05-07T15:06:57;3.15;;;2.95;;
6898;SDS011;3488;42.616;23.350;2023-05-07T15:09:24;3.20;;;3.00;;
6898;SDS011;3488;42.616;23.350;2023-05-07T15:11:51;2.90;;;2.80;;
6898;SDS011;3488;42.616;23.350;2023-05-07T15:14:18;4.95;;;3.60;;
6898;SDS011;3488;42.616;23.350;2023-05-07T15:16:48;3.88;;;3.05;;
6898;SDS011;3488;42.616;23.350;2023-05-07T15:19:15;3.30;;;3.20;;
6898;SDS011;3488;42.616;23.350;2023-05-07T15:21:42;5.43;;;3.50;;